Terminal Aerodrome Forecast
Issued by NWS Topeka, KS

Home | Current Version | Previous Version | Text Only | Print | Product List | Glossary Off
Versions: 1 2 3 4 5 6 7 8 9 10 11 12 13 14 15 16 17 18 19 20 21 22

000
FTUS43 KTOP 311102 AAC
TAFTOP
TAF AMD
KTOP 311102Z 3111/0106 00000KT 2SM BR SCT015
      TEMPO 3111/3113 1/4SM FG VV003
     FM311500 16007KT P6SM FEW030=

USA.gov is the U.S. government's official web portal to all federal, state and local government web resources and services.